createdAt,value
2022-11-24T00:01:47.940Z,13.70
2022-11-24T00:05:49.930Z,13.93
2022-11-24T00:09:51.899Z,13.10
2022-11-24T00:13:55.242Z,12.75
2022-11-24T00:18:27.344Z,12.48
2022-11-24T00:22:57.791Z,12.40
2022-11-24T00:26:59.329Z,13.88
2022-11-24T00:31:02.362Z,13.45
2022-11-24T00:35:04.901Z,13.85
2022-11-24T00:39:14.808Z,13.15
2022-11-24T00:43:41.205Z,14.35
2022-11-24T00:48:32.979Z,12.18
2022-11-24T00:52:34.725Z,12.65
2022-11-24T00:56:36.318Z,12.30
2022-11-24T01:00:38.011Z,12.52
2022-11-24T01:04:39.595Z,12.35
2022-11-24T01:08:42.280Z,13.05
2022-11-24T01:12:43.950Z,12.82
2022-11-24T01:16:45.882Z,12.45
2022-11-24T01:20:47.535Z,13.45
2022-11-24T01:24:49.165Z,12.15
2022-11-24T01:28:55.658Z,14.18
2022-11-24T01:32:57.335Z,12.13
2022-11-24T01:36:58.866Z,13.77
2022-11-24T01:41:21.946Z,11.77
2022-11-24T01:45:41.063Z,13.27
2022-11-24T01:49:51.327Z,12.98
2022-11-24T01:54:00.831Z,12.82
2022-11-24T01:58:19.283Z,11.48
2022-11-24T02:02:21.972Z,13.93
2022-11-24T02:06:27.866Z,13.68
2022-11-24T02:10:29.974Z,11.73
2022-11-24T02:14:32.177Z,12.65
2022-11-24T02:18:34.486Z,12.50
2022-11-24T02:22:51.122Z,14.07
2022-11-24T02:26:53.017Z,12.75
2022-11-24T02:30:55.404Z,13.07
2022-11-24T02:35:07.424Z,11.40
2022-11-24T02:39:12.362Z,12.32
2022-11-24T02:43:18.189Z,12.02
2022-11-24T02:47:19.840Z,11.63
2022-11-24T02:51:21.627Z,13.02
2022-11-24T02:55:25.065Z,12.10
2022-11-24T02:59:26.801Z,13.20
2022-11-24T03:03:28.822Z,12.70
2022-11-24T03:07:30.555Z,11.77
2022-11-24T03:11:32.771Z,12.18
2022-11-24T03:15:35.103Z,11.73
2022-11-24T03:19:36.744Z,11.07
2022-11-24T03:23:38.342Z,11.35
2022-11-24T03:27:40.052Z,12.00
2022-11-24T03:31:41.745Z,12.00
2022-11-24T03:35:43.487Z,12.27
2022-11-24T03:39:45.103Z,11.02
2022-11-24T03:43:46.663Z,12.90
2022-11-24T03:48:48.139Z,12.13
2022-11-24T03:52:49.756Z,11.93
2022-11-24T03:56:51.378Z,11.77
2022-11-24T04:00:54.621Z,12.57
2022-11-24T04:04:56.249Z,11.57
2022-11-24T04:08:57.893Z,12.27
2022-11-24T04:12:59.443Z,11.93
2022-11-24T04:17:02.634Z,12.45
2022-11-24T04:21:04.291Z,10.52
2022-11-24T04:25:06.915Z,11.18
2022-11-24T04:29:09.672Z,11.15
2022-11-24T04:33:11.511Z,11.05
2022-11-24T04:37:13.049Z,11.00
2022-11-24T04:41:14.736Z,10.63
2022-11-24T04:45:16.326Z,11.80
2022-11-24T04:49:17.954Z,11.55
2022-11-24T04:53:19.475Z,10.63
2022-11-24T04:57:23.943Z,12.27
2022-11-24T05:01:25.780Z,10.20
2022-11-24T05:05:27.515Z,11.48
2022-11-24T05:09:54.908Z,12.93
2022-11-24T05:13:52.955Z,9.75
2022-11-24T05:17:55.171Z,10.90
2022-11-24T05:21:57.834Z,11.50
2022-11-24T05:26:01.082Z,10.60
2022-11-24T05:30:03.314Z,10.57
2022-11-24T05:34:04.842Z,10.82
2022-11-24T05:38:06.572Z,9.55
2022-11-24T05:42:27.060Z,10.60
2022-11-24T05:46:28.654Z,9.20
2022-11-24T05:50:30.212Z,10.55
2022-11-24T05:54:31.994Z,10.48
2022-11-24T05:58:33.800Z,10.98
2022-11-24T06:02:35.623Z,9.18
2022-11-24T06:06:37.331Z,10.40
2022-11-24T06:10:38.915Z,9.63
2022-11-24T06:14:40.947Z,9.25
2022-11-24T06:18:42.644Z,9.75
2022-11-24T06:22:44.233Z,8.82
2022-11-24T06:26:45.954Z,9.50
2022-11-24T06:30:47.457Z,8.80
2022-11-24T06:34:49.221Z,9.82
2022-11-24T06:38:50.852Z,9.00
2022-11-24T06:42:52.633Z,9.23
2022-11-24T06:46:56.479Z,9.40
2022-11-24T06:50:59.975Z,8.93
2022-11-24T06:55:01.611Z,9.00
2022-11-24T06:59:03.215Z,9.13
2022-11-24T07:03:04.880Z,8.70
2022-11-24T07:07:06.852Z,9.20
2022-11-24T07:11:10.927Z,8.77
2022-11-24T07:15:12.654Z,10.77
2022-11-24T07:19:14.337Z,9.02
2022-11-24T07:23:15.985Z,10.57
2022-11-24T07:27:17.584Z,10.75
2022-11-24T07:31:21.848Z,9.40
2022-11-24T07:35:23.524Z,10.27
2022-11-24T07:39:25.900Z,11.52
2022-11-24T07:43:28.668Z,10.02
2022-11-24T07:47:30.410Z,11.25
2022-11-24T07:51:32.065Z,12.88
2022-11-24T07:55:33.535Z,10.80
2022-11-24T07:59:35.177Z,10.77
2022-11-24T08:03:37.292Z,11.07
2022-11-24T08:07:39.238Z,12.02
2022-11-24T08:11:40.780Z,12.75
2022-11-24T08:15:42.351Z,11.05
2022-11-24T08:19:44.287Z,10.93
2022-11-24T08:23:46.241Z,11.45
2022-11-24T08:33:42.610Z,10.90
2022-11-24T08:37:45.731Z,10.55
2022-11-24T08:41:56.659Z,9.30
2022-11-24T08:46:17.316Z,9.93
2022-11-24T08:50:31.630Z,10.95
2022-11-24T08:54:36.459Z,10.63
2022-11-24T08:58:39.701Z,10.52
2022-11-24T09:08:06.758Z,9.55
2022-11-24T09:12:20.267Z,10.02
2022-11-24T09:16:30.111Z,10.57
2022-11-24T09:20:32.262Z,9.77
2022-11-24T09:24:36.177Z,10.13
2022-11-24T09:28:38.150Z,10.13
2022-11-24T09:33:30.168Z,9.98
2022-11-24T09:38:09.628Z,9.93
2022-11-24T09:42:19.464Z,10.02
2022-11-24T09:46:28.528Z,9.50
2022-11-24T09:50:57.017Z,11.18
2022-11-24T09:55:28.014Z,10.07
2022-11-24T09:59:31.251Z,9.20
2022-11-24T10:03:50.481Z,10.88
2022-11-24T10:08:21.047Z,9.88
2022-11-24T10:12:51.509Z,9.23
2022-11-24T10:17:18.000Z,9.82
2022-11-24T10:21:44.083Z,10.27
2022-11-24T10:25:52.118Z,9.80
2022-11-24T10:29:55.539Z,10.50
2022-11-24T10:34:30.009Z,11.18
2022-11-24T10:38:48.515Z,10.93
2022-11-24T10:42:51.500Z,10.13
2022-11-24T10:46:53.138Z,10.60
2022-11-24T10:51:06.497Z,11.82
2022-11-24T10:55:52.809Z,11.50
2022-11-24T10:59:56.906Z,10.23
2022-11-24T11:04:02.584Z,10.82
2022-11-24T11:08:45.086Z,10.05
2022-11-24T11:12:47.456Z,11.38
2022-11-24T11:16:57.853Z,10.45
2022-11-24T11:21:02.897Z,10.68
2022-11-24T11:25:23.621Z,11.07
2022-11-24T11:34:35.227Z,9.32
2022-11-24T11:38:40.184Z,10.60
2022-11-24T11:43:02.377Z,8.27
2022-11-24T11:47:16.244Z,9.48
2022-11-24T11:51:50.160Z,10.30
2022-11-24T11:56:24.218Z,10.27
2022-11-24T12:00:26.650Z,10.00
2022-11-24T12:05:01.865Z,9.45
2022-11-24T12:09:36.233Z,11.10
2022-11-24T12:14:25.733Z,9.38
2022-11-24T12:18:59.001Z,9.05
2022-11-24T12:23:31.858Z,10.00
2022-11-24T12:27:50.216Z,9.93
2022-11-24T12:32:19.948Z,11.13
2022-11-24T12:36:52.417Z,10.60
2022-11-24T12:41:41.543Z,10.32
2022-11-24T12:46:41.355Z,9.73
2022-11-24T12:51:33.165Z,10.05
2022-11-24T12:56:11.524Z,9.50
2022-11-24T13:00:31.757Z,10.82
2022-11-24T13:05:10.273Z,9.32
2022-11-24T13:09:15.753Z,9.68
2022-11-24T13:13:17.826Z,10.40
2022-11-24T13:17:58.434Z,10.52
2022-11-24T13:22:49.861Z,9.85
2022-11-24T13:27:13.965Z,10.27
2022-11-24T13:31:27.963Z,9.95
2022-11-24T13:35:30.516Z,9.80
2022-11-24T13:39:52.999Z,10.10
2022-11-24T13:44:16.494Z,9.77
2022-11-24T13:49:09.189Z,9.77
2022-11-24T13:53:42.707Z,11.23
2022-11-24T13:58:13.158Z,9.80
2022-11-24T14:02:23.897Z,9.85
2022-11-24T14:07:07.996Z,9.70
2022-11-24T14:11:17.301Z,10.23
2022-11-24T14:15:57.888Z,10.85
2022-11-24T14:20:22.119Z,9.70
2022-11-24T14:24:41.659Z,11.10
2022-11-24T14:28:47.345Z,9.52
2022-11-24T14:33:19.444Z,10.45
2022-11-24T14:38:15.404Z,8.93
2022-11-24T14:42:27.284Z,10.52
2022-11-24T14:46:29.047Z,10.57
2022-11-24T14:50:30.685Z,10.40
2022-11-24T14:54:36.706Z,11.15
2022-11-24T14:58:47.128Z,11.82
2022-11-24T15:02:53.330Z,10.57
2022-11-24T15:07:08.259Z,12.45
2022-11-24T15:11:11.867Z,29.02
2022-11-24T15:15:13.480Z,13.88
2022-11-24T15:19:16.759Z,11.98
2022-11-24T15:23:41.776Z,12.63
2022-11-24T15:31:52.577Z,11.43
2022-11-24T15:35:55.154Z,12.35
2022-11-24T15:40:21.743Z,13.07
2022-11-24T15:44:23.814Z,11.60
2022-11-24T15:49:15.707Z,11.95
2022-11-24T15:53:24.478Z,12.00
2022-11-24T15:57:26.407Z,12.73
2022-11-24T16:02:33.735Z,12.35
2022-11-24T16:07:06.799Z,12.60
2022-11-24T16:11:35.957Z,13.73
2022-11-24T16:15:41.249Z,13.38
2022-11-24T16:19:43.574Z,12.98
2022-11-24T16:29:51.686Z,13.98
2022-11-24T16:33:53.202Z,13.98
2022-11-24T16:37:54.983Z,13.77
2022-11-24T16:41:56.668Z,14.75
2022-11-24T16:46:19.153Z,15.13
2022-11-24T16:50:22.026Z,14.27
2022-11-24T16:54:23.921Z,14.02
2022-11-24T16:58:25.510Z,14.50
2022-11-24T17:02:27.188Z,14.23
2022-11-24T17:06:29.150Z,14.00
2022-11-24T17:10:31.007Z,14.45
2022-11-24T17:14:32.953Z,15.43
2022-11-24T17:18:35.455Z,13.77
2022-11-24T17:22:36.847Z,14.60
2022-11-24T17:26:38.517Z,12.43
2022-11-24T17:30:40.020Z,14.50
2022-11-24T17:34:43.976Z,13.13
2022-11-24T17:38:45.695Z,12.82
2022-11-24T17:42:47.517Z,14.38
2022-11-24T17:46:49.151Z,13.57
2022-11-24T17:51:03.338Z,14.57
2022-11-24T17:55:05.417Z,13.68
2022-11-24T17:59:07.237Z,15.35
2022-11-24T18:03:08.690Z,14.60
2022-11-24T18:07:10.340Z,13.23
2022-11-24T18:11:24.602Z,13.85
2022-11-24T18:15:30.606Z,14.52
2022-11-24T18:19:32.209Z,16.52
2022-11-24T18:23:35.922Z,15.95
2022-11-24T18:27:37.721Z,14.13
2022-11-24T18:31:42.019Z,15.00
2022-11-24T18:35:44.540Z,15.07
2022-11-24T18:39:49.336Z,14.82
2022-11-24T18:43:50.920Z,16.40
2022-11-24T18:47:55.175Z,14.45
2022-11-24T18:51:59.371Z,15.23
2022-11-24T18:56:03.578Z,15.65
2022-11-24T19:00:06.635Z,15.02
2022-11-24T19:04:12.678Z,15.23
2022-11-24T19:08:16.245Z,17.23
2022-11-24T19:12:17.786Z,16.05
2022-11-24T19:16:23.289Z,15.68
2022-11-24T19:20:24.848Z,14.52
2022-11-24T19:24:26.627Z,15.23
2022-11-24T19:28:28.312Z,16.52
2022-11-24T19:32:31.360Z,15.77
2022-11-24T19:36:32.827Z,17.08
2022-11-24T19:40:34.395Z,16.08
2022-11-24T19:44:38.265Z,16.33
2022-11-24T19:48:45.323Z,15.13
2022-11-24T19:52:48.045Z,16.33
2022-11-24T19:56:49.950Z,16.67
2022-11-24T20:00:51.772Z,16.40
2022-11-24T20:04:53.454Z,15.10
2022-11-24T20:09:00.212Z,17.45
2022-11-24T20:13:04.574Z,14.95
2022-11-24T20:17:07.018Z,16.13
2022-11-24T20:21:19.627Z,16.45
2022-11-24T20:25:22.502Z,15.57
2022-11-24T20:29:24.601Z,15.63
2022-11-24T20:33:26.638Z,14.65
2022-11-24T20:37:29.520Z,16.08
2022-11-24T20:41:36.173Z,14.85
2022-11-24T20:45:40.196Z,14.63
2022-11-24T20:49:44.593Z,14.85
2022-11-24T20:53:46.356Z,13.10
2022-11-24T20:57:48.240Z,13.98
2022-11-24T21:01:51.543Z,14.45
2022-11-24T21:05:57.228Z,14.55
2022-11-24T21:09:58.748Z,14.93
2022-11-24T21:14:00.786Z,14.23
2022-11-24T21:18:03.138Z,14.88
2022-11-24T21:22:04.856Z,15.82
2022-11-24T21:26:13.023Z,15.38
2022-11-24T21:30:15.384Z,14.32
2022-11-24T21:34:18.560Z,14.52
2022-11-24T21:38:20.278Z,14.20
2022-11-24T21:42:21.752Z,14.40
2022-11-24T21:46:24.416Z,14.48
2022-11-24T21:50:25.920Z,13.23
2022-11-24T21:54:27.672Z,14.80
2022-11-24T21:58:29.773Z,13.85
2022-11-24T22:02:31.411Z,14.07
2022-11-24T22:06:33.276Z,13.48
2022-11-24T22:10:34.956Z,13.32
2022-11-24T22:14:40.395Z,12.57
2022-11-24T22:18:43.816Z,14.00
2022-11-24T22:22:50.509Z,12.23
2022-11-24T22:27:20.623Z,11.63
2022-11-24T22:31:24.939Z,11.73
2022-11-24T22:35:28.243Z,10.77
2022-11-24T22:39:29.942Z,11.43
2022-11-24T22:44:13.713Z,12.10
2022-11-24T22:48:19.909Z,10.90
2022-11-24T22:57:13.418Z,11.35
2022-11-24T23:01:40.913Z,10.43
2022-11-24T23:05:42.384Z,11.50
2022-11-24T23:10:16.064Z,11.98
2022-11-24T23:14:17.790Z,10.98
2022-11-24T23:18:19.373Z,10.63
2022-11-24T23:22:55.254Z,11.30
2022-11-24T23:26:57.079Z,11.32
2022-11-24T23:31:03.848Z,11.60
2022-11-24T23:35:09.699Z,11.43
2022-11-24T23:39:15.446Z,11.48
2022-11-24T23:43:17.794Z,11.35
2022-11-24T23:47:57.895Z,11.05
2022-11-24T23:52:24.726Z,10.52
2022-11-24T23:56:33.345Z,10.35
